Time;durP1;ratioP1;P1;durP2;ratioP2;P2;SDS_P1;SDS_P2;PMS_P1;PMS_P2;Temp;Humidity;BMP_temperature;BMP_pressure;BME280_temperature;BME280_humidity;BME280_pressure;Samples;Min_cycle;Max_cycle;Signal;HPM_P1;HPM_P2
2022/03/01 00:00:04;;;;;;;22.93;9.57;;;-2.20;99.90;;;;;;4382557;28;658981;-75
2022/03/01 00:02:53;;;;;;;25.93;9.90;;;-2.20;99.90;;;;;;4359900;28;658601;-74
2022/03/01 00:05:41;;;;;;;24.87;9.37;;;-2.30;99.90;;;;;;4363950;28;658616;-74
2022/03/01 00:08:28;;;;;;;30.53;11.37;;;-2.30;99.90;;;;;;4388783;28;660201;-74
2022/03/01 00:11:16;;;;;;;27.40;9.67;;;-2.20;99.90;;;;;;4364732;28;659455;-73
2022/03/01 00:14:03;;;;;;;36.67;11.57;;;-2.20;99.90;;;;;;4387020;28;659956;-74
2022/03/01 00:16:51;;;;;;;33.00;11.53;;;-2.20;99.90;;;;;;4360874;28;660243;-74
2022/03/01 00:19:40;;;;;;;34.17;11.53;;;-2.20;99.90;;;;;;4384979;28;660836;-74
2022/03/01 00:22:27;;;;;;;56.43;15.10;;;-2.20;99.90;;;;;;4358403;28;660605;-75
2022/03/01 00:25:15;;;;;;;43.13;13.60;;;-2.30;99.90;;;;;;4385034;28;659211;-75
2022/03/01 00:28:02;;;;;;;36.43;12.43;;;-2.30;99.90;;;;;;4358695;28;660977;-75
2022/03/01 00:30:50;;;;;;;34.50;12.07;;;-2.30;99.90;;;;;;4375291;28;659994;-74
2022/03/01 00:33:37;;;;;;;35.67;12.93;;;-2.30;99.90;;;;;;4362937;28;660327;-74
2022/03/01 00:36:26;;;;;;;37.97;13.10;;;-2.30;99.90;;;;;;4374802;28;659433;-74
2022/03/01 00:39:14;;;;;;;34.47;11.23;;;-2.30;99.90;;;;;;4381991;28;660489;-74
2022/03/01 00:42:01;;;;;;;37.97;10.65;;;-2.20;99.90;;;;;;4375660;28;659681;-74
2022/03/01 00:44:49;;;;;;;33.33;11.03;;;-2.20;99.90;;;;;;4404130;28;660202;-74
2022/03/01 00:47:36;;;;;;;40.07;12.13;;;-2.20;99.90;;;;;;4379626;28;659830;-74
2022/03/01 00:50:24;;;;;;;33.87;11.37;;;-2.20;99.90;;;;;;4392855;28;660891;-74
2022/03/01 00:53:13;;;;;;;29.75;11.30;;;-2.20;99.90;;;;;;4378823;28;660567;-74
2022/03/01 00:56:04;;;;;;;29.47;10.53;;;-2.20;99.90;;;;;;4379506;28;660471;-73
2022/03/01 00:58:51;;;;;;;25.83;10.50;;;-2.20;99.90;;;;;;4379645;28;659938;-74
2022/03/01 01:01:39;;;;;;;29.77;10.00;;;-2.20;99.90;;;;;;4398721;28;660492;-75
2022/03/01 01:04:26;;;;;;;40.53;12.53;;;-2.20;99.90;;;;;;4379150;28;660153;-74
2022/03/01 01:07:14;;;;;;;25.83;9.17;;;-2.20;99.90;;;;;;4396824;28;660822;-74
2022/03/01 01:10:03;;;;;;;33.27;9.80;;;-2.20;99.90;;;;;;4375926;28;658846;-74
2022/03/01 01:12:51;;;;;;;24.50;8.10;;;-2.20;99.90;;;;;;4381687;28;658545;-73
2022/03/01 01:15:38;;;;;;;30.97;9.30;;;-2.10;99.90;;;;;;4398525;28;659810;-74
2022/03/01 01:18:26;;;;;;;21.90;8.90;;;-2.10;99.90;;;;;;4382540;28;658791;-74
2022/03/01 01:21:13;;;;;;;49.57;14.93;;;-2.10;99.90;;;;;;4402504;28;658912;-75
2022/03/01 01:24:01;;;;;;;34.30;10.63;;;-2.00;99.90;;;;;;4384456;28;659578;-74
2022/03/01 01:26:50;;;;;;;23.47;9.57;;;-2.10;99.90;;;;;;4401464;28;660764;-74
2022/03/01 01:29:38;;;;;;;26.20;8.97;;;-2.10;99.90;;;;;;4378551;28;658970;-73
2022/03/01 01:32:25;;;;;;;24.52;8.68;;;-2.10;99.90;;;;;;4387835;28;658763;-73
2022/03/01 01:35:14;;;;;;;24.50;10.30;;;-2.10;99.90;;;;;;4401130;28;659074;-74
2022/03/01 01:38:01;;;;;;;23.97;9.10;;;-2.10;99.90;;;;;;4381124;28;660891;-74
2022/03/01 01:40:49;;;;;;;22.80;9.20;;;-2.10;99.90;;;;;;4402006;28;659737;-74
2022/03/01 01:43:38;;;;;;;26.80;9.30;;;-2.10;99.90;;;;;;4379243;28;659153;-74
2022/03/01 01:46:25;;;;;;;27.60;10.33;;;-2.20;99.90;;;;;;4390955;28;659105;-74
2022/03/01 01:49:13;;;;;;;26.77;10.07;;;-2.20;99.90;;;;;;4400169;28;660543;-74
2022/03/01 01:52:01;;;;;;;28.37;9.63;;;-2.20;99.90;;;;;;4382525;28;660053;-74
2022/03/01 01:54:49;;;;;;;24.53;9.53;;;-2.20;99.90;;;;;;4405891;28;659713;-74
2022/03/01 01:57:36;;;;;;;29.27;9.50;;;-2.20;99.90;;;;;;4382369;28;659372;-74
2022/03/01 02:00:25;;;;;;;23.53;8.93;;;-2.20;99.90;;;;;;4403921;28;658973;-73
2022/03/01 02:03:13;;;;;;;26.77;9.17;;;-2.20;99.90;;;;;;4382146;28;659647;-75
2022/03/01 02:06:00;;;;;;;22.48;9.38;;;-2.20;99.90;;;;;;4387755;28;659128;-73
2022/03/01 02:08:48;;;;;;;26.93;10.13;;;-2.30;99.90;;;;;;4405608;28;659404;-74
2022/03/01 02:11:36;;;;;;;24.83;8.97;;;-2.30;99.90;;;;;;4384104;28;659638;-73
2022/03/01 02:14:23;;;;;;;26.93;9.37;;;-2.30;99.90;;;;;;4408701;28;660541;-74
2022/03/01 02:17:13;;;;;;;22.67;9.27;;;-2.30;99.90;;;;;;4384659;28;658633;-74
2022/03/01 02:20:07;;;;;;;27.23;8.87;;;-2.30;99.90;;;;;;4383070;28;659511;-73
2022/03/01 02:22:55;;;;;;;23.73;9.13;;;-2.40;99.90;;;;;;4381300;28;659087;-74
2022/03/01 02:25:43;;;;;;;22.43;9.50;;;-2.40;99.90;;;;;;4384127;28;658557;-74
2022/03/01 02:28:30;;;;;;;25.73;9.67;;;-2.40;99.90;;;;;;4393951;28;658688;-73
2022/03/01 02:31:18;;;;;;;26.20;9.97;;;-2.40;99.90;;;;;;4404260;28;658774;-74
2022/03/01 02:34:06;;;;;;;23.40;9.00;;;-2.40;99.90;;;;;;4387689;28;658738;-74
2022/03/01 02:36:55;;;;;;;21.50;8.57;;;-2.40;99.90;;;;;;4405018;28;659517;-74
2022/03/01 02:39:42;;;;;;;22.87;9.03;;;-2.50;99.90;;;;;;4387503;28;659749;-74
2022/03/01 02:42:31;;;;;;;20.33;8.43;;;-2.50;99.90;;;;;;4403928;28;658273;-73
2022/03/01 02:45:19;;;;;;;22.33;8.10;;;-2.50;99.90;;;;;;4377594;28;659341;-74
2022/03/01 02:48:06;;;;;;;25.03;8.77;;;-2.50;99.90;;;;;;4388534;28;658641;-74
2022/03/01 02:50:54;;;;;;;21.83;7.93;;;-2.60;99.90;;;;;;4406597;28;658909;-74
2022/03/01 02:53:43;;;;;;;20.47;8.07;;;-2.60;99.90;;;;;;4387690;28;659049;-74
2022/03/01 02:56:30;;;;;;;20.10;8.07;;;-2.60;99.90;;;;;;4391514;28;658778;-73
2022/03/01 02:59:18;;;;;;;25.87;8.40;;;-2.60;99.90;;;;;;4407597;28;659200;-74
2022/03/01 03:02:06;;;;;;;21.67;8.10;;;-2.60;99.90;;;;;;4385623;28;658447;-74
2022/03/01 03:04:53;;;;;;;24.43;7.93;;;-2.60;99.90;;;;;;4408294;28;659213;-74
2022/03/01 03:07:41;;;;;;;20.47;7.50;;;-2.60;99.90;;;;;;4383898;28;659364;-74
2022/03/01 03:10:30;;;;;;;23.77;8.23;;;-2.60;99.90;;;;;;4404273;28;658955;-75
2022/03/01 03:13:17;;;;;;;23.50;8.57;;;-2.60;99.90;;;;;;4380755;28;659872;-74
2022/03/01 03:16:07;;;;;;;24.77;9.50;;;-2.60;99.90;;;;;;4403657;28;658987;-74
2022/03/01 03:18:55;;;;;;;26.73;9.20;;;-2.60;99.90;;;;;;4379945;28;659379;-74
2022/03/01 03:21:43;;;;;;;20.60;9.00;;;-2.60;99.90;;;;;;4382148;28;659426;-74
2022/03/01 03:24:31;;;;;;;27.80;9.33;;;-2.60;99.90;;;;;;4378997;28;658433;-73
2022/03/01 03:27:20;;;;;;;28.63;10.00;;;-2.60;99.90;;;;;;4402959;28;658920;-74
2022/03/01 03:30:09;;;;;;;32.77;10.03;;;-2.70;99.90;;;;;;4378703;28;660444;-74
2022/03/01 03:32:56;;;;;;;20.97;9.20;;;-2.70;99.90;;;;;;4384184;28;660114;-74
2022/03/01 03:35:44;;;;;;;24.60;10.30;;;-2.80;99.90;;;;;;4402917;28;659810;-74
2022/03/01 03:38:32;;;;;;;26.97;10.97;;;-2.90;99.90;;;;;;4382015;28;659846;-74
2022/03/01 03:41:19;;;;;;;27.10;10.77;;;-2.90;99.90;;;;;;4406648;28;658990;-74
2022/03/01 03:44:09;;;;;;;22.50;9.50;;;-3.00;99.90;;;;;;4380876;28;660946;-76
2022/03/01 03:46:56;;;;;;;27.83;11.10;;;-3.00;99.90;;;;;;4384914;28;659084;-75
2022/03/01 03:49:44;;;;;;;29.10;12.13;;;-3.10;99.90;;;;;;4401480;28;660023;-75
2022/03/01 03:52:32;;;;;;;31.27;12.73;;;-3.10;99.90;;;;;;4378418;28;659684;-75
2022/03/01 03:55:19;;;;;;;31.63;12.97;;;-3.20;99.90;;;;;;4401557;28;660154;-75
2022/03/01 03:58:07;;;;;;;34.77;13.60;;;-3.30;99.90;;;;;;4383881;28;659317;-75
2022/03/01 04:00:56;;;;;;;35.00;13.47;;;-3.30;99.90;;;;;;4400150;28;660258;-75
2022/03/01 04:03:43;;;;;;;31.87;12.93;;;-3.30;99.90;;;;;;4380120;28;660282;-75
2022/03/01 04:06:31;;;;;;;33.80;13.10;;;-3.40;99.90;;;;;;4380986;28;659683;-75
2022/03/01 04:09:18;;;;;;;32.73;11.93;;;-3.50;99.90;;;;;;4406329;28;659802;-75
2022/03/01 04:12:06;;;;;;;30.17;10.93;;;-3.50;99.90;;;;;;4383565;28;659829;-75
2022/03/01 04:14:54;;;;;;;23.67;9.97;;;-3.60;99.90;;;;;;4401829;28;661252;-76
2022/03/01 04:17:43;;;;;;;28.13;10.33;;;-3.60;99.90;;;;;;4379216;28;659382;-75
2022/03/01 04:20:31;;;;;;;27.97;10.57;;;-3.70;99.90;;;;;;4379863;28;659871;-75
2022/03/01 04:23:18;;;;;;;24.60;9.67;;;-3.80;99.90;;;;;;4403417;28;659745;-75
2022/03/01 04:26:06;;;;;;;28.27;9.57;;;-3.80;99.90;;;;;;4381766;28;659026;-75
2022/03/01 04:28:53;;;;;;;25.93;9.13;;;-3.90;99.90;;;;;;4400598;28;659356;-75
2022/03/01 04:31:41;;;;;;;27.63;9.73;;;-3.90;99.90;;;;;;4383962;28;658309;-75
2022/03/01 04:34:30;;;;;;;26.73;9.27;;;-4.00;1.00;;;;;;4397998;28;659723;-75
2022/03/01 04:37:18;;;;;;;28.80;9.77;;;-4.00;1.00;;;;;;4380319;28;658365;-75
2022/03/01 04:40:07;;;;;;;21.20;8.38;;;-4.00;1.00;;;;;;4389813;28;657522;-74
2022/03/01 04:42:54;;;;;;;22.60;8.73;;;-4.10;1.00;;;;;;4403020;28;657407;-75
2022/03/01 04:45:42;;;;;;;46.00;13.20;;;-4.10;1.00;;;;;;4384402;28;657299;-75
2022/03/01 04:48:29;;;;;;;87.60;22.85;;;-4.20;1.00;;;;;;4401515;28;659194;-75
2022/03/01 04:51:21;;;;;;;118.03;30.83;;;-4.20;1.00;;;;;;4378218;28;659414;-75
2022/03/01 04:54:09;;;;;;;103.90;26.47;;;-4.30;1.00;;;;;;4354975;28;660453;-75
2022/03/01 04:56:56;;;;;;;67.83;20.83;;;-4.30;1.00;;;;;;4379428;28;659594;-75
2022/03/01 04:59:44;;;;;;;49.50;16.17;;;-4.30;1.00;;;;;;4400615;28;659068;-76
2022/03/01 05:02:31;;;;;;;60.05;20.00;;;-4.30;1.00;;;;;;4373255;28;659006;-76
2022/03/01 05:05:19;;;;;;;84.67;26.83;;;-4.40;1.00;;;;;;4400717;28;658835;-75
2022/03/01 05:08:08;;;;;;;87.40;27.60;;;-4.40;1.00;;;;;;4379816;28;659120;-75
2022/03/01 05:10:56;;;;;;;70.27;24.63;;;-4.40;1.00;;;;;;4376097;28;658783;-75
2022/03/01 05:13:43;;;;;;;55.77;19.97;;;-4.40;1.00;;;;;;4395918;28;659364;-76
2022/03/01 05:16:31;;;;;;;66.50;20.93;;;-4.50;3.30;;;;;;4383316;28;658591;-75
2022/03/01 05:19:19;;;;;;;61.57;19.33;;;-4.50;8.20;;;;;;4397224;28;659306;-75
2022/03/01 05:22:06;;;;;;;55.03;19.47;;;-4.50;24.30;;;;;;4376394;28;658726;-76
2022/03/01 05:24:55;;;;;;;58.30;20.83;;;-4.50;68.90;;;;;;4388309;28;659708;-76
2022/03/01 05:27:44;;;;;;;69.60;24.50;;;-4.60;99.90;;;;;;4368352;28;660675;-76
2022/03/01 05:30:31;;;;;;;60.50;22.93;;;-4.60;99.90;;;;;;4375533;28;659555;-75
2022/03/01 05:33:19;;;;;;;57.77;21.27;;;-4.50;99.90;;;;;;4390993;28;660111;-75
2022/03/01 05:36:07;;;;;;;61.55;23.35;;;-4.50;99.90;;;;;;4380654;28;660205;-75
2022/03/01 05:38:54;;;;;;;60.70;21.77;;;-4.60;99.90;;;;;;4392812;28;660760;-76
2022/03/01 05:41:43;;;;;;;56.20;21.67;;;-4.50;99.90;;;;;;4375716;28;660496;-76
2022/03/01 05:44:31;;;;;;;55.60;20.47;;;-4.50;99.90;;;;;;4383497;28;659780;-74
2022/03/01 05:47:18;;;;;;;54.20;19.17;;;-4.50;1.00;;;;;;4398903;28;659636;-75
2022/03/01 05:50:09;;;;;;;53.00;18.97;;;-4.40;1.00;;;;;;4382207;28;658859;-74
2022/03/01 05:52:56;;;;;;;39.53;16.80;;;-4.40;1.00;;;;;;4380658;28;658376;-74
2022/03/01 05:55:44;;;;;;;53.03;17.00;;;-4.40;99.90;;;;;;4402498;28;659029;-76
2022/03/01 05:58:33;;;;;;;41.50;15.38;;;-4.40;99.90;;;;;;4382667;28;659569;-75
2022/03/01 06:01:21;;;;;;;44.87;15.77;;;-4.40;99.90;;;;;;4383042;28;659752;-74
2022/03/01 06:04:08;;;;;;;38.87;15.23;;;-4.40;99.90;;;;;;4401507;28;660464;-75
2022/03/01 06:06:56;;;;;;;38.33;14.83;;;-4.40;99.90;;;;;;4380487;28;659986;-74
2022/03/01 06:09:43;;;;;;;46.63;18.43;;;-4.40;99.90;;;;;;4400805;28;660539;-75
2022/03/01 06:12:31;;;;;;;48.90;17.70;;;-4.40;99.90;;;;;;4384149;28;659785;-75
2022/03/01 06:15:20;;;;;;;39.50;16.13;;;-4.30;99.90;;;;;;4398341;28;659866;-75
2022/03/01 06:18:07;;;;;;;37.47;13.43;;;-4.20;1.00;;;;;;4378989;28;660170;-74
2022/03/01 06:20:56;;;;;;;36.17;13.63;;;-4.00;1.00;;;;;;4388171;28;659084;-75
2022/03/01 06:23:43;;;;;;;41.50;15.50;;;-3.80;1.00;;;;;;4405194;28;659667;-75
2022/03/01 06:26:31;;;;;;;35.90;13.53;;;-3.60;1.00;;;;;;4385825;28;658968;-74
2022/03/01 06:29:18;;;;;;;36.43;13.30;;;-3.40;1.00;;;;;;4407255;28;659637;-77
2022/03/01 06:32:08;;;;;;;41.77;14.10;;;-3.20;1.00;;;;;;4383666;28;658665;-75
2022/03/01 06:34:56;;;;;;;37.43;14.33;;;-3.00;1.00;;;;;;4384809;28;658314;-75
2022/03/01 06:37:43;;;;;;;38.70;14.30;;;-2.80;1.00;;;;;;4403325;28;659378;-75
2022/03/01 06:40:31;;;;;;;40.43;14.47;;;-2.60;99.90;;;;;;4386315;28;659767;-74
2022/03/01 06:43:19;;;;;;;37.57;14.33;;;-2.40;99.90;;;;;;4397526;28;659969;-75
2022/03/01 06:46:06;;;;;;;35.87;12.70;;;-2.20;51.10;;;;;;4383795;28;660050;-74
2022/03/01 06:48:55;;;;;;;47.73;14.30;;;-2.10;1.00;;;;;;4406857;28;660126;-75
2022/03/01 06:51:43;;;;;;;41.80;14.93;;;-1.90;1.00;;;;;;4383184;28;659144;-75
2022/03/01 06:54:31;;;;;;;49.07;17.53;;;-1.80;1.00;;;;;;4385520;28;660754;-74
2022/03/01 06:57:18;;;;;;;44.90;15.80;;;-1.60;1.00;;;;;;4406063;28;658636;-76
2022/03/01 07:00:07;;;;;;;39.63;13.50;;;-1.50;99.90;;;;;;4381449;28;659269;-75
2022/03/01 07:02:55;;;;;;;40.65;14.73;;;-1.40;99.90;;;;;;4396062;28;660563;-75
2022/03/01 07:05:44;;;;;;;37.00;12.80;;;-1.30;99.90;;;;;;4381715;28;660694;-75
2022/03/01 07:08:31;;;;;;;41.43;13.00;;;-1.10;99.90;;;;;;4379351;28;659915;-76
2022/03/01 07:11:19;;;;;;;44.93;13.57;;;-1.00;99.90;;;;;;4400397;28;659623;-76
2022/03/01 07:14:07;;;;;;;40.23;13.93;;;-0.90;18.70;;;;;;4373707;28;660866;-76
2022/03/01 07:16:55;;;;;;;40.30;13.90;;;-0.70;1.00;;;;;;4398192;28;659779;-76
2022/03/01 07:19:42;;;;;;;34.57;11.30;;;-0.60;1.00;;;;;;4382503;28;659261;-75
2022/03/01 07:22:31;;;;;;;30.93;11.53;;;-0.50;1.00;;;;;;4397993;28;661561;-76
2022/03/01 07:25:19;;;;;;;31.07;9.83;;;-0.30;1.00;;;;;;4376940;28;659609;-76
2022/03/01 07:28:06;;;;;;;21.57;8.63;;;-0.20;1.00;;;;;;4380804;28;658180;-75
2022/03/01 07:30:54;;;;;;;23.97;9.00;;;-0.10;1.00;;;;;;4405928;28;658667;-75
2022/03/01 07:33:43;;;;;;;22.17;9.03;;;0.00;1.00;;;;;;4382158;28;657930;-76
2022/03/01 07:36:31;;;;;;;22.43;8.73;;;0.20;1.00;;;;;;4383816;28;657993;-75
2022/03/01 07:39:20;;;;;;;28.47;9.33;;;0.30;1.00;;;;;;4408817;28;657570;-76
2022/03/01 07:42:09;;;;;;;25.83;9.63;;;0.40;1.00;;;;;;4384740;28;657336;-75
2022/03/01 07:44:57;;;;;;;21.67;9.32;;;0.60;1.00;;;;;;4377085;28;656694;-75
2022/03/01 07:47:44;;;;;;;20.23;8.60;;;0.70;1.00;;;;;;4402189;28;656534;-76
2022/03/01 07:50:32;;;;;;;22.00;8.43;;;0.90;1.00;;;;;;4379412;28;656927;-75
2022/03/01 07:53:19;;;;;;;19.67;8.73;;;1.00;1.00;;;;;;4400737;28;656170;-76
2022/03/01 07:56:08;;;;;;;24.93;8.83;;;1.20;1.00;;;;;;4377097;28;657299;-75
2022/03/01 07:58:56;;;;;;;18.00;7.93;;;1.30;1.00;;;;;;4370589;28;656388;-75
2022/03/01 08:02:30;;;;;;;20.33;6.27;;;1.40;1.00;;;;;;4404599;28;657154;-76
2022/03/01 08:05:17;;;;;;;21.67;8.00;;;1.60;1.00;;;;;;4346423;28;656711;-75
2022/03/01 08:08:06;;;;;;;16.87;6.57;;;1.60;1.00;;;;;;4394328;28;657593;-74
2022/03/01 08:10:53;;;;;;;17.13;7.10;;;1.80;1.00;;;;;;4388219;28;657383;-75
2022/03/01 08:13:43;;;;;;;21.37;6.80;;;1.90;1.00;;;;;;4381049;28;656793;-74
2022/03/01 08:16:30;;;;;;;24.33;8.33;;;2.10;1.00;;;;;;4398189;28;656305;-74
2022/03/01 08:19:18;;;;;;;22.03;9.93;;;2.30;1.00;;;;;;4402579;28;657254;-74
2022/03/01 08:22:06;;;;;;;11.00;5.13;;;2.60;1.00;;;;;;4377229;28;656362;-75
2022/03/01 08:24:53;;;;;;;15.83;4.90;;;2.70;1.00;;;;;;4396558;28;657317;-75
2022/03/01 08:27:41;;;;;;;14.97;5.23;;;2.90;1.00;;;;;;4382874;28;656755;-75
2022/03/01 08:30:30;;;;;;;10.47;4.90;;;3.10;1.00;;;;;;4399411;28;657774;-75
2022/03/01 08:33:18;;;;;;;7.83;3.53;;;3.30;1.00;;;;;;4380631;28;657307;-76
2022/03/01 08:36:08;;;;;;;8.53;3.73;;;3.40;1.00;;;;;;4384621;28;655639;-75
2022/03/01 08:38:56;;;;;;;12.33;4.60;;;3.50;1.00;;;;;;4392538;28;656092;-74
2022/03/01 08:41:43;;;;;;;14.33;4.37;;;3.60;1.00;;;;;;4402570;28;657032;-75
2022/03/01 08:44:31;;;;;;;16.90;6.30;;;3.80;1.00;;;;;;4378239;28;657474;-75
2022/03/01 08:47:20;;;;;;;11.85;4.57;;;3.90;1.00;;;;;;4405698;28;658886;-75
2022/03/01 08:50:08;;;;;;;11.57;3.80;;;4.00;1.00;;;;;;4383701;28;657432;-75
2022/03/01 08:52:56;;;;;;;10.07;4.13;;;4.10;1.00;;;;;;4374709;28;656522;-73
2022/03/01 08:55:43;;;;;;;8.03;3.73;;;4.30;1.00;;;;;;4399740;28;656675;-75
2022/03/01 08:58:31;;;;;;;7.27;3.23;;;4.40;1.00;;;;;;4378368;28;656599;-75
2022/03/01 09:01:19;;;;;;;7.20;3.03;;;4.50;1.00;;;;;;4403169;28;656429;-75
2022/03/01 09:04:08;;;;;;;8.20;3.17;;;4.60;1.00;;;;;;4380874;28;655121;-75
2022/03/01 09:06:56;;;;;;;7.35;2.72;;;4.80;1.00;;;;;;4382979;28;655617;-74
2022/03/01 09:09:43;;;;;;;6.70;3.00;;;4.90;1.00;;;;;;4414271;28;655972;-76
2022/03/01 09:12:31;;;;;;;27.30;8.17;;;5.00;1.00;;;;;;4393904;28;656351;-75
2022/03/01 09:15:18;;;;;;;18.90;6.27;;;5.10;1.00;;;;;;4410229;28;658529;-75
2022/03/01 09:18:06;;;;;;;8.10;3.60;;;5.30;1.00;;;;;;4381758;28;656461;-75
2022/03/01 09:20:55;;;;;;;55.83;13.17;;;5.50;1.00;;;;;;4407116;28;655181;-74
2022/03/01 09:23:43;;;;;;;30.30;8.07;;;5.60;1.00;;;;;;4378700;28;658500;-75
2022/03/01 09:26:31;;;;;;;16.83;6.33;;;5.80;1.00;;;;;;4393042;28;657190;-74
2022/03/01 09:29:18;;;;;;;12.60;5.00;;;6.10;1.00;;;;;;4411764;28;658062;-74
2022/03/01 09:32:06;;;;;;;11.50;4.60;;;6.40;1.00;;;;;;4386383;28;656747;-75
2022/03/01 09:34:55;;;;;;;22.13;9.63;;;6.60;1.00;;;;;;4399895;28;657494;-75
2022/03/01 09:37:45;;;;;;;14.23;4.87;;;6.80;1.00;;;;;;4371598;28;657402;-76
2022/03/01 09:40:32;;;;;;;9.43;4.70;;;6.80;1.00;;;;;;4386543;28;657129;-75
2022/03/01 09:43:20;;;;;;;12.37;6.13;;;7.10;1.00;;;;;;4408757;28;655309;-75
2022/03/01 09:46:08;;;;;;;8.80;3.50;;;7.10;1.00;;;;;;4385622;28;657769;-75
2022/03/01 09:48:56;;;;;;;9.73;4.90;;;7.40;1.00;;;;;;4377934;28;656051;-75
2022/03/01 09:51:44;;;;;;;18.67;7.10;;;7.50;1.00;;;;;;4411330;28;656752;-75
2022/03/01 09:54:33;;;;;;;18.23;6.70;;;7.60;1.00;;;;;;4387446;28;656759;-75
2022/03/01 09:57:20;;;;;;;149.77;23.30;;;7.70;1.00;;;;;;4386576;28;656828;-74
2022/03/01 10:00:09;;;;;;;44.13;14.13;;;7.70;1.00;;;;;;4396599;28;659558;-75
2022/03/01 10:02:59;;;;;;;21.58;7.00;;;7.80;1.00;;;;;;4383314;28;658277;-74
2022/03/01 10:05:46;;;;;;;47.87;12.73;;;7.90;1.00;;;;;;4381701;28;657334;-75
2022/03/01 10:08:34;;;;;;;13.33;4.23;;;7.90;1.00;;;;;;4392258;28;659393;-75
2022/03/01 10:11:23;;;;;;;9.13;4.07;;;8.00;1.00;;;;;;4387089;28;656154;-75
2022/03/01 10:14:10;;;;;;;9.80;4.07;;;8.10;1.00;;;;;;4389415;28;655246;-74
2022/03/01 10:16:58;;;;;;;6.93;3.77;;;8.20;1.00;;;;;;4410063;28;656334;-75
2022/03/01 10:19:45;;;;;;;10.07;4.87;;;8.20;1.00;;;;;;4390445;28;656644;-74
2022/03/01 10:22:33;;;;;;;11.77;4.60;;;8.20;1.00;;;;;;4407227;28;657267;-75
2022/03/01 10:25:22;;;;;;;10.15;4.70;;;8.20;1.00;;;;;;4386530;28;656321;-75
2022/03/01 10:28:11;;;;;;;13.07;4.70;;;8.60;1.00;;;;;;4408272;28;656775;-75
2022/03/01 10:30:58;;;;;;;16.10;7.00;;;9.20;1.00;;;;;;4377400;28;657418;-75
2022/03/01 10:33:56;;;;;;;15.20;6.07;;;9.20;1.00;;;;;;4388043;28;656861;-74
2022/03/01 10:36:46;;;;;;;12.53;5.77;;;8.90;1.00;;;;;;4373640;28;657851;-75
2022/03/01 10:39:34;;;;;;;14.33;6.30;;;9.20;1.00;;;;;;4378987;28;656775;-75
2022/03/01 10:42:27;;;;;;;14.75;6.65;;;8.80;1.00;;;;;;4388082;28;657155;-74
2022/03/01 10:45:16;;;;;;;13.83;6.67;;;9.20;1.00;;;;;;4378581;28;656582;-76
2022/03/01 10:48:04;;;;;;;19.73;7.50;;;9.20;1.00;;;;;;4373843;28;657333;-75
2022/03/01 10:50:58;;;;;;;14.10;7.17;;;9.20;1.00;;;;;;4362929;28;656758;-75
2022/03/01 10:53:46;;;;;;;22.00;11.23;;;9.10;1.00;;;;;;4364587;28;657096;-74
2022/03/01 10:56:38;;;;;;;17.83;8.63;;;9.40;1.00;;;;;;4398949;28;657918;-75
2022/03/01 10:59:26;;;;;;;13.53;7.13;;;9.70;1.00;;;;;;4358893;28;658877;-73
2022/03/01 11:02:17;;;;;;;9.60;4.53;;;9.70;1.00;;;;;;4401862;28;656951;-75
2022/03/01 11:05:05;;;;;;;9.10;5.13;;;9.70;1.00;;;;;;4386761;28;655493;-75
2022/03/01 11:07:52;;;;;;;15.83;6.67;;;10.00;1.00;;;;;;4373328;28;657136;-75
2022/03/01 11:10:41;;;;;;;12.63;4.20;;;10.30;1.00;;;;;;4395077;28;658164;-74
2022/03/01 11:13:28;;;;;;;6.77;3.33;;;10.20;1.00;;;;;;4407355;28;658929;-74
2022/03/01 11:16:34;;;;;;;13.93;5.53;;;10.50;1.00;;;;;;4383587;28;656142;-75
2022/03/01 11:19:48;;;;;;;24.60;10.52;;;10.80;1.00;;;;;;4351706;28;658138;-74
2022/03/01 11:22:41;;;;;;;11.23;4.67;;;10.90;1.00;;;;;;4363566;28;659616;-74
2022/03/01 11:25:35;;;;;;;8.83;3.93;;;10.80;1.00;;;;;;4379528;28;658078;-74
2022/03/01 11:28:30;;;;;;;11.60;5.17;;;11.00;1.00;;;;;;4361734;28;657212;-75
2022/03/01 11:31:22;;;;;;;9.23;3.83;;;11.10;1.00;;;;;;4363004;28;658037;-74
2022/03/01 11:34:13;;;;;;;10.37;4.40;;;11.50;1.00;;;;;;4374102;28;656853;-74
2022/03/01 11:37:03;;;;;;;8.77;4.30;;;11.40;1.00;;;;;;4350531;28;657984;-74
2022/03/01 11:39:55;;;;;;;10.70;4.13;;;11.90;1.00;;;;;;4364023;28;657979;-74
2022/03/01 11:42:48;;;;;;;10.80;4.93;;;11.90;1.00;;;;;;4375912;28;658333;-74
2022/03/01 11:45:36;;;;;;;15.90;5.33;;;12.10;1.00;;;;;;4357309;28;658011;-74
2022/03/01 11:48:24;;;;;;;9.47;4.23;;;12.30;1.00;;;;;;4401376;28;658122;-75
2022/03/01 11:51:12;;;;;;;12.47;5.10;;;11.80;1.00;;;;;;4374856;28;656634;-74
2022/03/01 11:54:02;;;;;;;99.83;28.37;;;11.60;1.00;;;;;;4397510;28;658294;-75
2022/03/01 11:56:52;;;;;;;11.40;5.03;;;12.20;1.00;;;;;;4373846;28;658823;-75
2022/03/01 11:59:39;;;;;;;13.10;4.37;;;11.80;1.00;;;;;;4375759;28;658105;-75
2022/03/01 12:02:27;;;;;;;20.63;8.67;;;11.40;1.00;;;;;;4381605;28;658327;-75
2022/03/01 12:05:25;;;;;;;11.40;4.80;;;11.90;1.00;;;;;;4396160;28;657853;-73
2022/03/01 12:08:13;;;;;;;9.50;4.30;;;12.20;1.00;;;;;;4355257;28;658569;-74
2022/03/01 12:11:08;;;;;;;11.20;4.63;;;12.10;1.00;;;;;;4384672;28;656511;-75
2022/03/01 12:13:55;;;;;;;15.45;5.28;;;12.20;1.00;;;;;;4355429;28;657719;-73
2022/03/01 12:16:43;;;;;;;12.37;5.13;;;12.10;1.00;;;;;;4391011;28;657580;-75
2022/03/01 12:19:31;;;;;;;15.50;5.57;;;12.20;1.00;;;;;;4370239;28;658576;-74
2022/03/01 12:22:19;;;;;;;9.97;4.87;;;12.50;1.00;;;;;;4389434;28;657794;-75
2022/03/01 12:25:08;;;;;;;9.70;4.00;;;12.90;1.00;;;;;;4386595;28;656618;-75
2022/03/01 12:27:57;;;;;;;9.93;4.30;;;12.90;1.00;;;;;;4386925;28;656895;-73
2022/03/01 12:30:45;;;;;;;8.03;4.50;;;12.70;1.00;;;;;;4403628;28;657046;-75
2022/03/01 12:33:33;;;;;;;9.90;4.80;;;13.20;1.00;;;;;;4382929;28;657709;-74
2022/03/01 12:36:25;;;;;;;11.57;5.10;;;14.00;1.00;;;;;;4388112;28;656503;-73
2022/03/01 12:39:13;;;;;;;10.40;4.20;;;13.70;1.00;;;;;;4374966;28;658416;-75
2022/03/01 12:42:01;;;;;;;17.37;6.40;;;13.90;1.00;;;;;;4374539;28;657751;-74
2022/03/01 12:44:50;;;;;;;13.40;6.37;;;13.50;1.00;;;;;;4390152;28;658528;-75
2022/03/01 12:47:41;;;;;;;7.87;4.97;;;13.70;1.00;;;;;;4361989;28;658717;-74
2022/03/01 12:50:29;;;;;;;7.73;4.20;;;14.00;1.00;;;;;;4380380;28;657235;-74
2022/03/01 12:53:17;;;;;;;9.37;4.50;;;13.70;1.00;;;;;;4380186;28;656278;-74
2022/03/01 12:56:05;;;;;;;6.43;4.10;;;13.60;1.00;;;;;;4400131;28;656553;-75
2022/03/01 12:58:54;;;;;;;9.40;4.43;;;13.40;1.00;;;;;;4374237;28;657780;-74
2022/03/01 13:01:45;;;;;;;6.90;4.00;;;13.20;1.00;;;;;;4371677;28;656414;-74
2022/03/01 13:04:34;;;;;;;10.87;5.13;;;13.50;1.00;;;;;;4381737;28;657905;-74
2022/03/01 13:07:30;;;;;;;8.03;4.30;;;13.20;1.00;;;;;;4384795;28;657573;-74
2022/03/01 13:10:27;;;;;;;7.20;3.70;;;12.70;1.00;;;;;;4359525;28;657214;-75
2022/03/01 13:13:15;;;;;;;7.33;3.67;;;13.40;1.00;;;;;;4367130;28;656675;-74
2022/03/01 13:16:04;;;;;;;15.60;5.03;;;14.00;1.00;;;;;;4403978;28;657452;-74
2022/03/01 13:18:55;;;;;;;9.60;4.13;;;15.00;1.00;;;;;;4383629;28;657912;-76
2022/03/01 13:21:43;;;;;;;12.43;5.27;;;15.50;1.00;;;;;;4379707;28;657014;-74
2022/03/01 13:24:32;;;;;;;13.40;5.43;;;15.70;1.00;;;;;;4381590;28;657701;-73
2022/03/01 13:27:22;;;;;;;11.73;5.60;;;16.30;1.00;;;;;;4399993;28;657322;-74
2022/03/01 13:30:10;;;;;;;9.27;5.23;;;17.50;1.00;;;;;;4379149;28;658039;-75
2022/03/01 13:33:26;;;;;;;15.07;6.15;;;17.80;1.00;;;;;;4391566;28;657207;-75
2022/03/01 13:36:16;;;;;;;10.63;5.03;;;17.90;1.00;;;;;;4367705;28;658385;-74
2022/03/01 13:39:07;;;;;;;10.43;5.03;;;18.80;1.00;;;;;;4384013;28;658035;-75
2022/03/01 13:41:57;;;;;;;16.70;7.73;;;19.30;1.00;;;;;;4379243;28;658792;-76
2022/03/01 13:44:46;;;;;;;13.53;5.13;;;19.90;1.00;;;;;;4379858;28;657679;-75
2022/03/01 13:47:35;;;;;;;13.47;6.27;;;20.60;1.00;;;;;;4381142;28;658051;-74
2022/03/01 13:50:23;;;;;;;15.93;6.87;;;21.50;1.00;;;;;;4376637;28;658540;-74
2022/03/01 13:53:17;;;;;;;9.73;3.90;;;21.00;1.00;;;;;;4376926;28;657729;-73
2022/03/01 13:56:06;;;;;;;7.63;4.17;;;21.50;1.00;;;;;;4369732;28;656764;-73
2022/03/01 13:58:53;;;;;;;8.43;3.93;;;21.30;1.00;;;;;;4394050;28;657186;-75
2022/03/01 14:01:47;;;;;;;7.27;3.60;;;22.00;1.00;;;;;;4372873;28;656823;-74
2022/03/01 14:04:34;;;;;;;9.00;4.43;;;22.00;1.00;;;;;;4377875;28;656680;-74
2022/03/01 14:07:24;;;;;;;22.50;9.10;;;21.90;1.00;;;;;;4379657;28;657231;-74
2022/03/01 14:10:13;;;;;;;17.17;7.70;;;22.00;1.00;;;;;;4382250;28;657539;-74
2022/03/01 14:13:02;;;;;;;15.30;6.00;;;22.60;1.00;;;;;;4384212;28;658107;-74
2022/03/01 14:15:51;;;;;;;9.10;4.33;;;22.70;1.00;;;;;;4406398;28;657216;-74
2022/03/01 14:18:40;;;;;;;15.77;8.73;;;23.10;1.00;;;;;;4388089;28;656879;-75
2022/03/01 14:21:27;;;;;;;9.53;4.87;;;23.70;1.00;;;;;;4383971;28;658798;-74